Time;durP1;ratioP1;P1;durP2;ratioP2;P2;SDS_P1;SDS_P2;PMS_P1;PMS_P2;Temp;Humidity;BMP_temperature;BMP_pressure;BME280_temperature;BME280_humidity;BME280_pressure;Samples;Min_cycle;Max_cycle;Signal;HPM_P1;HPM_P2
2022/09/20 00:02:05;;;;;;;1.48;1.20;;;;;;;;;;10227212;29;20106;-75
2022/09/20 00:07:05;;;;;;;1.75;1.40;;;;;;;;;;10227964;29;20041;-79
2022/09/20 00:12:06;;;;;;;1.98;1.65;;;;;;;;;;10227169;29;20027;-74
2022/09/20 00:17:06;;;;;;;2.37;1.90;;;;;;;;;;10227421;29;20113;-76
2022/09/20 00:22:06;;;;;;;2.15;1.92;;;;;;;;;;10243938;29;20278;-77
2022/09/20 00:27:07;;;;;;;42.95;40.33;;;;;;;;;;10227109;29;20466;-79
2022/09/20 00:32:07;;;;;;;93.30;87.88;;;;;;;;;;10225497;29;20054;-76
2022/09/20 00:37:07;;;;;;;3.90;1.98;;;;;;;;;;10226444;29;20031;-75
2022/09/20 00:42:12;;;;;;;2.75;1.80;;;;;;;;;;10243412;29;20085;-79
2022/09/20 00:47:20;;;;;;;50.22;47.05;;;;;;;;;;10226345;29;20032;-74
2022/09/20 00:52:21;;;;;;;121.47;114.63;;;;;;;;;;10225888;29;20492;-77
2022/09/20 00:57:22;;;;;;;4.80;3.10;;;;;;;;;;10226503;29;20122;-75
2022/09/20 01:02:25;;;;;;;2.47;2.05;;;;;;;;;;10210166;29;20024;-77
2022/09/20 01:07:25;;;;;;;1.95;1.80;;;;;;;;;;10243536;29;20024;-74
2022/09/20 01:12:28;;;;;;;3.53;2.13;;;;;;;;;;10225941;29;20465;-79
2022/09/20 01:17:30;;;;;;;121.75;113.50;;;;;;;;;;10226159;29;20199;-76
2022/09/20 01:22:39;;;;;;;2.30;1.92;;;;;;;;;;10242749;29;20059;-75
2022/09/20 01:27:47;;;;;;;2.13;1.92;;;;;;;;;;10226203;29;20241;-75
2022/09/20 01:32:59;;;;;;;2.60;2.40;;;;;;;;;;10225918;29;20062;-79
2022/09/20 01:38:19;;;;;;;2.28;2.05;;;;;;;;;;10225560;29;20448;-75
2022/09/20 01:43:30;;;;;;;3.05;2.60;;;;;;;;;;10248125;28;20026;-79
2022/09/20 01:48:37;;;;;;;7.45;6.75;;;;;;;;;;10232657;29;20027;-76
2022/09/20 01:53:47;;;;;;;2.40;2.20;;;;;;;;;;10215742;29;20026;-74
2022/09/20 01:58:55;;;;;;;2.65;2.45;;;;;;;;;;10232597;29;20015;-75
2022/09/20 02:03:58;;;;;;;2.75;2.33;;;;;;;;;;10231384;29;20020;-76
2022/09/20 02:09:01;;;;;;;2.50;2.22;;;;;;;;;;10232681;29;20093;-75
2022/09/20 02:14:20;;;;;;;3.25;2.60;;;;;;;;;;10248072;29;20482;-76
2022/09/20 02:19:20;;;;;;;;;;;;;;;;;;10232133;29;20019;-74
2022/09/20 02:24:30;;;;;;;21.60;12.05;;;;;;;;;;10232342;29;20388;-74
2022/09/20 02:29:39;;;;;;;2.45;2.25;;;;;;;;;;10231374;29;20437;-75
2022/09/20 02:34:58;;;;;;;3.03;2.45;;;;;;;;;;10230803;29;20194;-79
2022/09/20 02:40:17;;;;;;;2.83;2.22;;;;;;;;;;10247852;29;20116;-75
2022/09/20 02:45:21;;;;;;;2.47;2.08;;;;;;;;;;10247912;29;20027;-78
2022/09/20 02:50:39;;;;;;;5.65;2.70;;;;;;;;;;10230972;29;20027;-76
2022/09/20 02:55:42;;;;;;;3.10;2.80;;;;;;;;;;10247380;28;20417;-77
2022/09/20 03:01:01;;;;;;;3.22;2.85;;;;;;;;;;10230372;29;20026;-74
2022/09/20 03:06:20;;;;;;;3.92;2.58;;;;;;;;;;10247013;28;20031;-75
2022/09/20 03:11:26;;;;;;;4.20;3.05;;;;;;;;;;10229573;29;20015;-79
2022/09/20 03:16:44;;;;;;;3.33;2.72;;;;;;;;;;10229458;29;20412;-75
2022/09/20 03:22:11;;;;;;;6.93;3.72;;;;;;;;;;10217413;29;20552;-76
2022/09/20 03:27:25;;;;;;;5.15;2.95;;;;;;;;;;10229054;29;20033;-75
2022/09/20 03:32:52;;;;;;;4.80;2.85;;;;;;;;;;10228616;29;20592;-75
2022/09/20 03:38:11;;;;;;;3.42;2.65;;;;;;;;;;10213925;29;20496;-76
2022/09/20 03:43:32;;;;;;;4.38;2.58;;;;;;;;;;10228172;29;20030;-74
2022/09/20 03:48:55;;;;;;;2.95;2.35;;;;;;;;;;10228098;29;20079;-74
2022/09/20 03:54:12;;;;;;;4.47;2.70;;;;;;;;;;10227701;29;20106;-74
2022/09/20 03:59:12;;;;;;;3.63;2.72;;;;;;;;;;10221588;29;20055;-77
2022/09/20 04:04:20;;;;;;;3.88;2.00;;;;;;;;;;10233023;28;20082;-75
2022/09/20 04:09:27;;;;;;;4.10;2.35;;;;;;;;;;10191846;29;20090;-73
2022/09/20 04:14:43;;;;;;;4.15;2.10;;;;;;;;;;10209884;29;20029;-75
2022/09/20 04:19:46;;;;;;;6.60;2.78;;;;;;;;;;10218347;29;20031;-79
2022/09/20 04:24:55;;;;;;;6.68;2.72;;;;;;;;;;10227928;29;20130;-75
2022/09/20 04:30:07;;;;;;;7.05;1.77;;;;;;;;;;10243675;29;20510;-77
2022/09/20 04:40:54;;;;;;;3.67;2.40;;;;;;;;;;10191430;29;20024;-78
2022/09/20 04:46:04;;;;;;;2.28;2.00;;;;;;;;;;10203194;29;20023;-77
2022/09/20 04:51:23;;;;;;;3.20;2.22;;;;;;;;;;10201364;29;20502;-76
2022/09/20 04:56:38;;;;;;;3.50;2.75;;;;;;;;;;10200779;29;20509;-74
2022/09/20 05:01:57;;;;;;;3.58;2.50;;;;;;;;;;10195655;29;20485;-75
2022/09/20 05:07:12;;;;;;;3.00;2.22;;;;;;;;;;10201842;29;20058;-76
2022/09/20 05:12:33;;;;;;;4.45;2.88;;;;;;;;;;10195773;29;20139;-74
2022/09/20 05:17:52;;;;;;;4.10;2.40;;;;;;;;;;10201716;29;20454;-74
2022/09/20 05:23:09;;;;;;;4.25;2.70;;;;;;;;;;10204198;29;20024;-74
2022/09/20 05:28:23;;;;;;;8.48;2.75;;;;;;;;;;10206538;29;20034;-78
2022/09/20 05:33:29;;;;;;;6.35;3.35;;;;;;;;;;10224461;29;20157;-77
2022/09/20 05:38:42;;;;;;;2.90;2.28;;;;;;;;;;10217128;29;20098;-78
2022/09/20 05:43:49;;;;;;;2.72;2.25;;;;;;;;;;10228423;29;20070;-77
2022/09/20 05:48:58;;;;;;;2.85;1.67;;;;;;;;;;10218159;29;20095;-78
2022/09/20 05:54:17;;;;;;;3.00;2.17;;;;;;;;;;10233251;29;20482;-73
2022/09/20 05:59:33;;;;;;;3.30;2.53;;;;;;;;;;10238161;29;20070;-73
2022/09/20 06:04:46;;;;;;;3.22;2.03;;;;;;;;;;10206778;29;20106;-73
2022/09/20 06:10:05;;;;;;;4.13;2.00;;;;;;;;;;10232806;29;20150;-79
2022/09/20 06:15:16;;;;;;;4.30;2.03;;;;;;;;;;10229833;28;20398;-77
2022/09/20 06:20:17;;;;;;;3.30;2.22;;;;;;;;;;10217636;29;20580;-73
2022/09/20 06:25:39;;;;;;;2.93;1.70;;;;;;;;;;10220231;29;20150;-79
2022/09/20 06:30:43;;;;;;;2.75;1.25;;;;;;;;;;10226366;28;20042;-72
2022/09/20 06:41:25;;;;;;;1.63;1.08;;;;;;;;;;10197711;29;20055;-73
2022/09/20 06:41:27;;;;;;;3.40;1.45;;;;;;;;;;10196471;29;20068;-76
2022/09/20 06:46:28;;;;;;;4.57;1.70;;;;;;;;;;10176529;29;20036;-77
2022/09/20 06:51:33;;;;;;;6.10;1.85;;;;;;;;;;10197181;29;20035;-79
2022/09/20 06:56:35;;;;;;;6.80;1.65;;;;;;;;;;10202338;29;20039;-76
2022/09/20 07:01:35;;;;;;;1.77;0.90;;;;;;;;;;10204156;29;20140;-74
2022/09/20 07:06:36;;;;;;;3.90;0.90;;;;;;;;;;10203115;29;20107;-75
2022/09/20 07:11:36;;;;;;;4.23;0.63;;;;;;;;;;10167659;29;20271;-75
2022/09/20 07:16:37;;;;;;;1.38;1.00;;;;;;;;;;10199866;29;20015;-75
2022/09/20 07:21:37;;;;;;;1.33;0.68;;;;;;;;;;10199996;29;20362;-75
2022/09/20 07:26:37;;;;;;;2.92;0.60;;;;;;;;;;10200993;29;20400;-77
2022/09/20 07:31:38;;;;;;;1.58;0.68;;;;;;;;;;10208722;29;20513;-74
2022/09/20 07:36:38;;;;;;;5.20;1.60;;;;;;;;;;10202250;29;20031;-74
2022/09/20 07:41:38;;;;;;;3.85;0.80;;;;;;;;;;10213669;29;20081;-74
2022/09/20 07:46:39;;;;;;;2.38;0.82;;;;;;;;;;10237527;29;20035;-78
2022/09/20 07:51:39;;;;;;;0.90;0.65;;;;;;;;;;10216399;29;20435;-73
2022/09/20 07:56:39;;;;;;;3.17;1.00;;;;;;;;;;10197206;29;20517;-74
2022/09/20 08:01:40;;;;;;;1.50;1.00;;;;;;;;;;10210509;29;20028;-78
2022/09/20 08:06:41;;;;;;;1.30;0.60;;;;;;;;;;10242617;29;20054;-78
2022/09/20 08:11:42;;;;;;;0.50;0.50;;;;;;;;;;10226441;29;20019;-75
2022/09/20 08:16:44;;;;;;;2.55;0.98;;;;;;;;;;10241699;29;20015;-77
2022/09/20 08:21:44;;;;;;;2.45;1.05;;;;;;;;;;10184032;29;20114;-73
2022/09/20 08:26:44;;;;;;;1.23;0.60;;;;;;;;;;10186313;29;20032;-77
2022/09/20 08:31:46;;;;;;;1.10;0.97;;;;;;;;;;10197440;28;20058;-79
2022/09/20 08:36:46;;;;;;;1.25;0.70;;;;;;;;;;10250046;28;20042;-74
2022/09/20 08:41:49;;;;;;;1.02;0.70;;;;;;;;;;10225534;28;20026;-74
2022/09/20 08:46:53;;;;;;;3.45;1.50;;;;;;;;;;10239832;29;20039;-74
2022/09/20 08:51:56;;;;;;;2.45;0.93;;;;;;;;;;10236546;29;20042;-73
2022/09/20 08:56:57;;;;;;;2.67;1.52;;;;;;;;;;10220639;29;20027;-73
2022/09/20 09:01:58;;;;;;;2.85;1.10;;;;;;;;;;10221715;29;20114;-76
2022/09/20 09:06:58;;;;;;;0.95;0.65;;;;;;;;;;10224960;29;20414;-74
2022/09/20 09:11:59;;;;;;;8.17;7.50;;;;;;;;;;10225828;29;20028;-74
2022/09/20 09:16:59;;;;;;;2.20;0.90;;;;;;;;;;10224221;29;20126;-74
2022/09/20 09:22:01;;;;;;;3.60;0.70;;;;;;;;;;10241812;29;20035;-78
2022/09/20 09:27:20;;;;;;;2.85;0.75;;;;;;;;;;10225094;29;20278;-74
2022/09/20 09:32:20;;;;;;;0.95;0.38;;;;;;;;;;10224827;29;20062;-74
2022/09/20 09:37:28;;;;;;;1.92;0.80;;;;;;;;;;10241963;29;20489;-74
2022/09/20 09:42:28;;;;;;;5.43;0.90;;;;;;;;;;10224434;29;20066;-74
2022/09/20 09:47:35;;;;;;;1.90;0.65;;;;;;;;;;10223850;29;20520;-73
2022/09/20 09:52:35;;;;;;;0.82;0.45;;;;;;;;;;10224043;28;20027;-74
2022/09/20 09:57:52;;;;;;;1.58;0.40;;;;;;;;;;10223522;29;20035;-73
2022/09/20 10:02:56;;;;;;;4.35;0.60;;;;;;;;;;10225934;28;20075;-75
2022/09/20 10:08:16;;;;;;;0.43;0.30;;;;;;;;;;10230401;29;20094;-74
2022/09/20 10:13:23;;;;;;;0.75;0.40;;;;;;;;;;10240713;29;20513;-74
2022/09/20 10:18:37;;;;;;;2.20;1.25;;;;;;;;;;10230556;29;20030;-73
2022/09/20 10:23:50;;;;;;;1.63;0.65;;;;;;;;;;10227774;29;20020;-74
2022/09/20 10:28:53;;;;;;;1.65;0.50;;;;;;;;;;10228720;29;20031;-75
2022/09/20 10:34:05;;;;;;;0.93;0.20;;;;;;;;;;10223031;29;20054;-75
2022/09/20 10:39:09;;;;;;;2.75;0.90;;;;;;;;;;10197790;29;20591;-77
2022/09/20 10:44:18;;;;;;;4.93;0.45;;;;;;;;;;10227771;29;20031;-74
2022/09/20 10:49:22;;;;;;;0.40;0.38;;;;;;;;;;10229373;29;20100;-80
2022/09/20 10:54:22;;;;;;;0.28;0.20;;;;;;;;;;10245481;28;20027;-75
2022/09/20 10:59:41;;;;;;;0.93;0.45;;;;;;;;;;10229742;29;20046;-74
2022/09/20 11:04:42;;;;;;;0.63;0.40;;;;;;;;;;10229479;29;20114;-74
2022/09/20 11:09:45;;;;;;;7.28;2.22;;;;;;;;;;10226562;29;20543;-74
2022/09/20 11:14:54;;;;;;;3.03;0.70;;;;;;;;;;10201481;29;20090;-78
2022/09/20 11:20:15;;;;;;;1.75;0.68;;;;;;;;;;10225463;29;20474;-77
2022/09/20 11:25:32;;;;;;;1.40;1.15;;;;;;;;;;10246140;29;20034;-74
2022/09/20 11:30:33;;;;;;;1060.00;973.20;;;;;;;;;;10229310;28;20530;-74
2022/09/20 11:35:45;;;;;;;2.75;0.77;;;;;;;;;;10204528;29;20063;-74
2022/09/20 11:40:49;;;;;;;0.90;0.90;;;;;;;;;;10223624;29;20030;-76
2022/09/20 11:45:52;;;;;;;1.30;0.90;;;;;;;;;;10228703;29;20138;-74
2022/09/20 11:50:59;;;;;;;2.42;1.10;;;;;;;;;;10228912;29;20035;-75
2022/09/20 11:56:06;;;;;;;1.77;1.20;;;;;;;;;;10204090;29;20040;-73
2022/09/20 12:01:11;;;;;;;4.60;2.47;;;;;;;;;;10194770;29;20024;-74
2022/09/20 12:06:29;;;;;;;4.05;1.20;;;;;;;;;;10248935;29;20035;-73
2022/09/20 12:11:31;;;;;;;5.15;1.27;;;;;;;;;;10250343;29;20110;-74
2022/09/20 12:16:34;;;;;;;38.33;34.35;;;;;;;;;;10229572;29;20027;-77
2022/09/20 12:21:54;;;;;;;18.25;17.02;;;;;;;;;;10212439;29;20114;-78
2022/09/20 12:26:56;;;;;;;6.20;1.20;;;;;;;;;;10231815;28;20116;-78
2022/09/20 12:31:59;;;;;;;4.50;1.40;;;;;;;;;;10219011;29;20632;-77
2022/09/20 12:36:59;;;;;;;2.05;1.55;;;;;;;;;;10234293;29;20524;-76
2022/09/20 12:42:01;;;;;;;4.10;1.60;;;;;;;;;;10213613;29;20026;-74
2022/09/20 12:47:01;;;;;;;1.17;0.90;;;;;;;;;;10218454;29;20525;-74
2022/09/20 12:57:27;;;;;;;3.85;1.10;;;;;;;;;;10229545;29;20062;-73
2022/09/20 13:03:01;;;;;;;3.70;1.17;;;;;;;;;;10216078;29;20020;-75
2022/09/20 13:08:04;;;;;;;1.35;1.08;;;;;;;;;;10216644;29;20764;-74
2022/09/20 13:13:11;;;;;;;5.82;2.08;;;;;;;;;;10221211;29;20023;-77
2022/09/20 13:18:14;;;;;;;2.28;1.40;;;;;;;;;;10225251;29;20035;-81
2022/09/20 13:23:19;;;;;;;2.17;1.02;;;;;;;;;;10213553;29;20094;-75
2022/09/20 13:28:33;;;;;;;1.15;0.95;;;;;;;;;;10217730;29;20134;-82
2022/09/20 13:33:34;;;;;;;4.20;1.90;;;;;;;;;;10210830;29;20530;-73
2022/09/20 13:38:36;;;;;;;6.70;2.17;;;;;;;;;;10222734;29;20058;-77
2022/09/20 13:43:38;;;;;;;1.70;1.08;;;;;;;;;;10224034;29;20030;-77
2022/09/20 13:48:39;;;;;;;3.10;1.50;;;;;;;;;;10228627;29;20031;-74
2022/09/20 13:53:39;;;;;;;4.93;1.20;;;;;;;;;;10215846;29;20398;-72
2022/09/20 13:58:40;;;;;;;1.83;1.33;;;;;;;;;;10225499;29;20031;-74
2022/09/20 14:03:43;;;;;;;2.63;1.13;;;;;;;;;;10210122;29;20031;-78
2022/09/20 14:08:45;;;;;;;0.95;0.85;;;;;;;;;;10215119;29;20033;-75
2022/09/20 14:13:47;;;;;;;1.77;1.48;;;;;;;;;;10222690;29;20042;-73
2022/09/20 14:18:48;;;;;;;3.67;1.83;;;;;;;;;;10214026;29;20063;-74
2022/09/20 14:23:53;;;;;;;4.40;1.77;;;;;;;;;;10222748;29;20174;-76
2022/09/20 14:28:53;;;;;;;3.92;2.05;;;;;;;;;;10224970;29;20533;-75
2022/09/20 14:33:56;;;;;;;2.00;1.30;;;;;;;;;;10221431;29;20052;-75
2022/09/20 14:38:58;;;;;;;2.35;1.45;;;;;;;;;;10231591;28;20298;-75
2022/09/20 14:44:01;;;;;;;4.55;2.25;;;;;;;;;;10227847;29;20031;-74
2022/09/20 14:49:20;;;;;;;3.05;1.50;;;;;;;;;;10215930;28;20031;-73
2022/09/20 14:54:28;;;;;;;4.47;2.13;;;;;;;;;;10223922;29;20032;-75
2022/09/20 14:59:29;;;;;;;;;;;;;;;;;;10235795;29;20031;-78
2022/09/20 15:04:31;;;;;;;5.85;2.13;;;;;;;;;;10222904;29;19929;-74
2022/09/20 15:09:32;;;;;;;3.28;1.83;;;;;;;;;;10207895;29;20071;-73
2022/09/20 15:14:32;;;;;;;3.95;1.77;;;;;;;;;;10228036;29;20023;-74
2022/09/20 15:19:33;;;;;;;1.85;1.33;;;;;;;;;;10206615;29;20544;-80
2022/09/20 15:24:33;;;;;;;3.47;2.35;;;;;;;;;;10221888;29;20031;-74
2022/09/20 15:29:33;;;;;;;2.65;1.73;;;;;;;;;;10232347;29;20039;-77
2022/09/20 15:34:34;;;;;;;2.97;1.35;;;;;;;;;;10196528;29;20111;-74
2022/09/20 15:39:34;;;;;;;5.45;1.70;;;;;;;;;;10191009;29;20560;-77
2022/09/20 15:44:34;;;;;;;2.23;1.50;;;;;;;;;;10193169;29;20032;-76
2022/09/20 15:49:34;;;;;;;5.10;2.40;;;;;;;;;;10192345;29;20036;-75
2022/09/20 15:54:35;;;;;;;2.03;1.50;;;;;;;;;;10206993;29;20955;-75
2022/09/20 15:59:35;;;;;;;3.00;1.73;;;;;;;;;;10196009;29;20028;-78
2022/09/20 16:04:35;;;;;;;6.25;2.50;;;;;;;;;;10193975;29;20027;-76
2022/09/20 16:09:43;;;;;;;4.95;1.65;;;;;;;;;;10189687;29;20051;-74
2022/09/20 16:14:44;;;;;;;2.80;2.05;;;;;;;;;;10196959;29;20224;-73
2022/09/20 16:19:47;;;;;;;3.90;2.03;;;;;;;;;;10195514;29;20043;-74
2022/09/20 16:24:47;;;;;;;3.35;1.98;;;;;;;;;;10180632;29;20482;-74
2022/09/20 16:29:52;;;;;;;3.55;1.75;;;;;;;;;;10196079;29;20032;-79
2022/09/20 16:34:53;;;;;;;2.50;1.60;;;;;;;;;;10217940;29;20055;-73
2022/09/20 16:39:56;;;;;;;4.43;1.60;;;;;;;;;;10224503;29;20094;-77
2022/09/20 16:44:58;;;;;;;6.15;2.47;;;;;;;;;;10201551;28;20461;-74
2022/09/20 16:49:58;;;;;;;6.18;3.00;;;;;;;;;;10209889;28;20089;-74
2022/09/20 16:54:59;;;;;;;3.58;2.28;;;;;;;;;;10211402;28;20093;-74
2022/09/20 17:00:02;;;;;;;3.55;1.92;;;;;;;;;;10219417;28;20039;-75
2022/09/20 17:05:03;;;;;;;2.67;2.08;;;;;;;;;;10223153;28;20045;-74
2022/09/20 17:10:05;;;;;;;4.38;2.30;;;;;;;;;;10219096;28;20042;-73
2022/09/20 17:15:12;;;;;;;4.43;2.53;;;;;;;;;;10216138;28;20058;-73
2022/09/20 17:20:12;;;;;;;2.40;1.92;;;;;;;;;;10216665;28;20038;-73
2022/09/20 17:25:13;;;;;;;3.70;2.30;;;;;;;;;;10212685;28;20031;-72
2022/09/20 17:30:13;;;;;;;3.55;2.15;;;;;;;;;;10234298;28;20512;-72
2022/09/20 17:35:14;;;;;;;8.47;2.70;;;;;;;;;;10234440;29;20043;-71
2022/09/20 17:40:15;;;;;;;5.18;3.03;;;;;;;;;;10236424;29;20058;-71
2022/09/20 17:45:15;;;;;;;6.63;3.13;;;;;;;;;;10236889;29;20118;-71
2022/09/20 17:50:15;;;;;;;9.00;3.22;;;;;;;;;;10219730;29;20486;-73
2022/09/20 17:55:16;;;;;;;6.72;3.72;;;;;;;;;;10217122;29;20033;-71
2022/09/20 18:00:16;;;;;;;14.50;2.47;;;;;;;;;;10230117;29;20182;-72
2022/09/20 18:05:17;;;;;;;5.47;3.03;;;;;;;;;;10237061;29;20453;-71
2022/09/20 18:10:17;;;;;;;4.53;2.75;;;;;;;;;;10217662;29;20028;-71
2022/09/20 18:15:22;;;;;;;8.77;3.63;;;;;;;;;;10230055;29;20027;-71
2022/09/20 18:20:22;;;;;;;4.60;2.00;;;;;;;;;;10225769;29;20282;-72
2022/09/20 18:25:26;;;;;;;117.40;110.18;;;;;;;;;;10217619;29;20039;-72
2022/09/20 18:30:27;;;;;;;9.57;5.90;;;;;;;;;;10221867;29;20039;-72
2022/09/20 18:35:29;;;;;;;7.10;2.78;;;;;;;;;;10222288;29;20058;-74
2022/09/20 18:40:30;;;;;;;6.68;3.08;;;;;;;;;;10207019;29;20023;-72
2022/09/20 18:45:34;;;;;;;6.10;3.20;;;;;;;;;;10214764;29;20111;-71
2022/09/20 18:50:40;;;;;;;7.85;3.05;;;;;;;;;;10219146;29;20032;-72
2022/09/20 18:55:40;;;;;;;7.07;3.88;;;;;;;;;;10236913;29;20035;-71
2022/09/20 19:00:41;;;;;;;6.50;3.20;;;;;;;;;;10237187;29;20035;-74
2022/09/20 19:05:53;;;;;;;7.00;3.75;;;;;;;;;;10215342;29;20042;-71
2022/09/20 19:10:59;;;;;;;8.77;7.93;;;;;;;;;;10218044;29;20035;-73
2022/09/20 19:16:03;;;;;;;19.27;17.85;;;;;;;;;;10234249;29;20036;-72
2022/09/20 19:21:15;;;;;;;283.77;266.63;;;;;;;;;;10263985;23;20746;-72
2022/09/20 19:26:21;;;;;;;297.25;273.73;;;;;;;;;;10261785;28;20038;-72
2022/09/20 19:31:22;;;;;;;5.93;3.33;;;;;;;;;;10278556;28;20529;-73
2022/09/20 19:36:23;;;;;;;5.85;4.00;;;;;;;;;;10260415;28;20402;-72
2022/09/20 19:41:35;;;;;;;7.53;3.50;;;;;;;;;;10278065;28;20473;-73
2022/09/20 19:46:36;;;;;;;7.95;4.15;;;;;;;;;;10261462;28;20155;-75
2022/09/20 19:51:39;;;;;;;6.95;3.80;;;;;;;;;;10276313;28;20038;-71
2022/09/20 19:56:44;;;;;;;5.30;3.40;;;;;;;;;;10277565;28;20473;-74
2022/09/20 20:01:45;;;;;;;5.55;3.58;;;;;;;;;;10260130;28;20030;-71
2022/09/20 20:06:53;;;;;;;10.45;9.32;;;;;;;;;;10276362;28;20026;-72
2022/09/20 20:12:00;;;;;;;90.50;85.47;;;;;;;;;;10257881;28;20035;-71
2022/09/20 20:17:19;;;;;;;233.60;214.65;;;;;;;;;;10270822;28;20031;-72
2022/09/20 20:22:28;;;;;;;6.97;4.25;;;;;;;;;;10264081;28;20531;-72
2022/09/20 20:27:31;;;;;;;8.15;4.90;;;;;;;;;;10253176;28;20036;-73
2022/09/20 20:32:32;;;;;;;5.60;3.40;;;;;;;;;;10247547;28;20069;-73
2022/09/20 20:37:38;;;;;;;11.00;5.70;;;;;;;;;;10249688;28;20033;-74
2022/09/20 20:42:39;;;;;;;7.13;4.00;;;;;;;;;;10263734;28;20469;-72
2022/09/20 20:47:43;;;;;;;8.13;4.32;;;;;;;;;;10274180;28;20122;-75
2022/09/20 20:52:43;;;;;;;8.32;4.65;;;;;;;;;;10276946;28;20031;-73
2022/09/20 20:57:46;;;;;;;7.30;3.78;;;;;;;;;;10262605;28;20512;-74
2022/09/20 21:02:47;;;;;;;7.07;4.40;;;;;;;;;;10253190;28;20038;-73
2022/09/20 21:07:51;;;;;;;8.18;3.83;;;;;;;;;;10276551;28;20397;-71
2022/09/20 21:12:54;;;;;;;7.88;4.72;;;;;;;;;;10275719;28;20038;-72
2022/09/20 21:17:54;;;;;;;6.70;3.95;;;;;;;;;;10254797;28;20019;-75
2022/09/20 21:22:55;;;;;;;7.00;4.13;;;;;;;;;;10252933;28;20074;-75
2022/09/20 21:27:58;;;;;;;9.70;4.53;;;;;;;;;;10262028;28;20031;-74
2022/09/20 21:32:58;;;;;;;7.43;4.15;;;;;;;;;;10264138;28;20061;-81
2022/09/20 21:37:58;;;;;;;7.55;3.20;;;;;;;;;;10261399;28;20425;-75
2022/09/20 21:42:58;;;;;;;6.43;4.03;;;;;;;;;;10260750;28;20034;-79
2022/09/20 21:47:59;;;;;;;5.18;3.28;;;;;;;;;;10259313;28;20408;-79
2022/09/20 21:52:59;;;;;;;5.57;3.80;;;;;;;;;;10262680;28;20138;-82
2022/09/20 21:57:59;;;;;;;6.23;3.37;;;;;;;;;;10264972;28;20204;-74
2022/09/20 22:03:00;;;;;;;8.82;4.47;;;;;;;;;;10270035;28;20266;-74
2022/09/20 22:08:01;;;;;;;7.22;4.35;;;;;;;;;;10270108;28;20038;-75
2022/09/20 22:13:01;;;;;;;5.90;4.30;;;;;;;;;;10269240;28;20030;-74
2022/09/20 22:18:03;;;;;;;9.13;4.45;;;;;;;;;;10269788;28;20491;-79
2022/09/20 22:23:04;;;;;;;6.32;3.45;;;;;;;;;;10281184;28;20137;-73
2022/09/20 22:28:04;;;;;;;8.85;4.57;;;;;;;;;;10269298;28;20113;-75
2022/09/20 22:33:04;;;;;;;9.63;5.40;;;;;;;;;;10286491;28;20015;-73
2022/09/20 22:38:06;;;;;;;7.32;4.70;;;;;;;;;;10269135;28;20023;-74
2022/09/20 22:43:06;;;;;;;7.28;4.57;;;;;;;;;;10267919;28;20409;-73
2022/09/20 22:48:06;;;;;;;7.32;4.40;;;;;;;;;;10266783;28;20026;-76
2022/09/20 22:53:07;;;;;;;6.30;3.83;;;;;;;;;;10268739;28;20014;-74
2022/09/20 22:58:07;;;;;;;6.15;4.38;;;;;;;;;;10268374;28;20846;-79
2022/09/20 23:03:07;;;;;;;5.38;3.67;;;;;;;;;;10267670;28;20031;-78
2022/09/20 23:08:07;;;;;;;7.15;4.20;;;;;;;;;;10267344;28;20022;-74
2022/09/20 23:13:08;;;;;;;7.22;4.32;;;;;;;;;;10267438;28;20122;-76
2022/09/20 23:18:08;;;;;;;7.45;4.60;;;;;;;;;;10265572;28;20398;-78
2022/09/20 23:23:08;;;;;;;7.55;3.95;;;;;;;;;;10266294;28;20517;-77
2022/09/20 23:28:09;;;;;;;4.80;3.85;;;;;;;;;;10266618;28;20022;-76
2022/09/20 23:33:09;;;;;;;7.90;7.13;;;;;;;;;;10264492;28;20108;-74
2022/09/20 23:38:09;;;;;;;7.63;5.47;;;;;;;;;;10266553;28;20059;-74
2022/09/20 23:43:11;;;;;;;157.07;147.45;;;;;;;;;;10266429;28;20025;-76
2022/09/20 23:48:11;;;;;;;7.93;6.95;;;;;;;;;;10259804;28;20027;-74
2022/09/20 23:53:11;;;;;;;7.38;4.63;;;;;;;;;;10257122;28;20023;-76
2022/09/20 23:58:11;;;;;;;6.75;4.32;;;;;;;;;;10272987;28;20111;-77
